Port Rexton, Canada
Current Conditions -  °F | °C
As of 5:00 PM on Tuesday 21 Oct 2014 (Local Time) from CYYT Reporting Station
Few Clouds Few Clouds  
Wind Chill: 41°   Ceiling: Unl
Heat Index: 48°   Visibility: 15mi
Dew Point: 39°   Wind: 21mph
Humidity: 71%   Direction: 270°W
Pressure: 30.09"   Gusts: NA
Location:  48.4°N, 53.35°W
Report Text: CYYT 211900Z 27018KT 15SM FEW040 09/04 A3009 RMK SC2 SLP192
Loading
Personal Weather Stations






























Interactive Weather Map
Tropical Storm Tracking
New forecast layout! Learn more

10-Day Weather Forecast

Advertisements
Track Severe Weather on mobile